createdAt,value
2019-04-06T00:01:43.060Z,27.47
2019-04-06T00:04:14.972Z,27.30
2019-04-06T00:06:46.811Z,27.93
2019-04-06T00:09:18.752Z,26.73
2019-04-06T00:11:50.588Z,26.40
2019-04-06T00:14:22.489Z,25.93
2019-04-06T00:16:54.409Z,26.50
2019-04-06T00:19:26.348Z,27.23
2019-04-06T00:21:59.480Z,25.37
2019-04-06T00:24:31.412Z,25.73
2019-04-06T00:27:03.262Z,27.10
2019-04-06T00:29:54.008Z,26.57
2019-04-06T00:32:32.622Z,27.27
2019-04-06T00:35:04.443Z,23.60
2019-04-06T00:37:36.157Z,29.37
2019-04-06T00:40:08.813Z,27.63
2019-04-06T00:42:40.446Z,27.67
2019-04-06T00:45:12.170Z,27.30
2019-04-06T00:47:43.974Z,27.70
2019-04-06T00:50:18.321Z,29.27
2019-04-06T00:52:50.026Z,25.47
2019-04-06T00:55:21.680Z,30.13
2019-04-06T00:57:53.489Z,27.33
2019-04-06T01:00:25.264Z,25.37
2019-04-06T01:02:56.959Z,27.40
2019-04-06T01:05:28.601Z,28.67
2019-04-06T01:08:00.319Z,31.83
2019-04-06T01:10:31.998Z,26.43
2019-04-06T01:13:03.667Z,29.43
2019-04-06T01:15:35.364Z,29.50
2019-04-06T01:18:07.021Z,28.30
2019-04-06T01:20:38.718Z,27.90
2019-04-06T01:23:10.496Z,28.43
2019-04-06T01:25:42.170Z,29.30
2019-04-06T01:28:13.829Z,27.77
2019-04-06T01:30:46.990Z,29.77
2019-04-06T01:33:18.879Z,29.40
2019-04-06T01:35:50.575Z,27.80
2019-04-06T01:38:22.401Z,27.90
2019-04-06T01:40:54.086Z,29.50
2019-04-06T01:43:25.887Z,27.80
2019-04-06T01:45:57.614Z,27.63
2019-04-06T01:48:29.306Z,27.53
2019-04-06T01:51:00.962Z,27.63
2019-04-06T01:53:32.713Z,27.30
2019-04-06T01:56:04.411Z,28.27
2019-04-06T01:58:36.080Z,26.60
2019-04-06T02:01:22.025Z,28.17
2019-04-06T02:03:53.718Z,23.80
2019-04-06T02:06:26.515Z,24.73
2019-04-06T02:08:58.188Z,28.90
2019-04-06T02:11:29.893Z,27.23
2019-04-06T02:14:01.596Z,26.50
2019-04-06T02:16:33.273Z,27.73
2019-04-06T02:19:04.958Z,26.10
2019-04-06T02:21:36.634Z,24.80
2019-04-06T02:24:08.384Z,28.03
2019-04-06T02:26:40.036Z,24.57
2019-04-06T02:29:11.728Z,26.60
2019-04-06T02:32:01.222Z,27.13
2019-04-06T02:34:54.881Z,27.33
2019-04-06T02:38:03.697Z,27.60
2019-04-06T02:40:49.216Z,25.70
2019-04-06T02:43:23.609Z,27.20
2019-04-06T02:45:55.258Z,24.43
2019-04-06T02:48:27.053Z,28.87
2019-04-06T02:50:58.660Z,29.00
2019-04-06T02:53:30.316Z,25.50
2019-04-06T02:56:02.119Z,25.07
2019-04-06T02:58:33.851Z,24.60
2019-04-06T03:01:05.536Z,27.67
2019-04-06T03:03:37.239Z,26.90
2019-04-06T03:06:09.380Z,24.67
2019-04-06T03:08:41.018Z,26.73
2019-04-06T03:11:12.810Z,27.70
2019-04-06T03:13:44.529Z,26.00
2019-04-06T03:16:16.413Z,25.23
2019-04-06T03:18:48.045Z,28.67
2019-04-06T03:21:19.719Z,26.20
2019-04-06T03:23:52.446Z,27.93
2019-04-06T03:26:24.380Z,25.43
2019-04-06T03:28:56.040Z,27.13
2019-04-06T03:31:28.219Z,25.37
2019-04-06T03:34:00.098Z,28.93
2019-04-06T03:36:31.871Z,28.43
2019-04-06T03:39:05.096Z,29.17
2019-04-06T03:41:36.885Z,28.00
2019-04-06T03:44:09.849Z,24.13
2019-04-06T03:46:41.506Z,26.03
2019-04-06T03:49:13.175Z,24.67
2019-04-06T03:51:44.857Z,26.70
2019-04-06T03:54:16.583Z,26.93
2019-04-06T03:56:48.279Z,24.53
2019-04-06T03:59:19.978Z,25.03
2019-04-06T04:01:51.664Z,26.97
2019-04-06T04:04:23.360Z,26.70
2019-04-06T04:06:55.028Z,26.07
2019-04-06T04:09:26.707Z,27.60
2019-04-06T04:11:58.388Z,25.60
2019-04-06T04:14:30.098Z,26.47
2019-04-06T04:17:01.859Z,22.93
2019-04-06T04:19:33.562Z,24.70
2019-04-06T04:22:05.280Z,27.17
2019-04-06T04:24:37.176Z,26.40
2019-04-06T04:27:09.002Z,27.10
2019-04-06T04:29:40.705Z,26.70
2019-04-06T04:32:12.419Z,28.93
2019-04-06T04:34:44.106Z,26.50
2019-04-06T04:37:15.767Z,24.90
2019-04-06T04:39:47.444Z,26.10
2019-04-06T04:42:19.098Z,27.07
2019-04-06T04:44:51.922Z,26.73
2019-04-06T04:47:23.762Z,25.83
2019-04-06T04:49:55.475Z,25.67
2019-04-06T04:52:28.582Z,25.50
2019-04-06T04:55:00.354Z,25.57
2019-04-06T04:57:40.190Z,26.87
2019-04-06T05:00:06.228Z,28.87
2019-04-06T05:02:38.040Z,27.63
2019-04-06T05:05:09.991Z,26.63
2019-04-06T05:07:41.658Z,26.17
2019-04-06T05:10:13.708Z,28.90
2019-04-06T05:12:45.473Z,28.53
2019-04-06T05:15:30.023Z,28.10
2019-04-06T05:18:01.705Z,26.37
2019-04-06T05:20:33.396Z,27.23
2019-04-06T05:23:06.060Z,27.77
2019-04-06T05:25:37.736Z,28.47
2019-04-06T05:28:09.392Z,26.30
2019-04-06T05:30:41.147Z,30.00
2019-04-06T05:33:15.012Z,26.60
2019-04-06T05:35:46.652Z,27.03
2019-04-06T05:38:18.317Z,28.60
2019-04-06T05:40:50.003Z,26.17
2019-04-06T05:43:22.951Z,27.00
2019-04-06T05:45:54.655Z,27.00
2019-04-06T05:48:26.327Z,27.40
2019-04-06T05:50:58.155Z,28.27
2019-04-06T05:53:29.900Z,27.57
2019-04-06T05:56:01.786Z,30.33
2019-04-06T05:58:34.083Z,28.97
2019-04-06T06:01:10.243Z,25.90
2019-04-06T06:03:41.248Z,26.87
2019-04-06T06:06:13.467Z,28.37
2019-04-06T06:08:45.167Z,26.50
2019-04-06T06:11:16.854Z,27.87
2019-04-06T06:13:48.548Z,26.73
2019-04-06T06:16:20.343Z,26.47
2019-04-06T06:18:52.204Z,27.33
2019-04-06T06:21:24.108Z,29.93
2019-04-06T06:23:55.784Z,23.97
2019-04-06T06:26:29.403Z,28.73
2019-04-06T06:29:01.119Z,28.50
2019-04-06T06:31:32.999Z,26.13
2019-04-06T06:34:06.150Z,24.57
2019-04-06T06:36:38.345Z,24.37
2019-04-06T06:39:10.812Z,25.47
2019-04-06T06:41:42.567Z,28.83
2019-04-06T06:44:14.391Z,23.70
2019-04-06T06:46:46.088Z,24.00
2019-04-06T06:49:17.824Z,23.83
2019-04-06T06:51:49.595Z,26.93
2019-04-06T06:54:21.297Z,26.37
2019-04-06T06:56:53.157Z,27.83
2019-04-06T06:59:24.848Z,23.90
2019-04-06T07:01:56.526Z,24.37
2019-04-06T07:04:29.417Z,24.37
2019-04-06T07:07:01.209Z,24.57
2019-04-06T07:09:33.112Z,24.00
2019-04-06T07:12:04.767Z,25.57
2019-04-06T07:14:36.527Z,23.93
2019-04-06T07:17:08.274Z,23.67
2019-04-06T07:19:39.950Z,23.70
2019-04-06T07:22:13.460Z,24.63
2019-04-06T07:24:45.208Z,23.70
2019-04-06T07:27:16.934Z,25.63
2019-04-06T07:29:48.625Z,27.90
2019-04-06T07:32:20.508Z,23.57
2019-04-06T07:34:52.216Z,25.43
2019-04-06T07:37:24.547Z,23.80
2019-04-06T07:39:56.375Z,23.80
2019-04-06T07:42:29.382Z,23.67
2019-04-06T07:45:01.203Z,23.00
2019-04-06T07:47:32.929Z,25.00
2019-04-06T07:50:05.010Z,23.87
2019-04-06T07:52:36.688Z,23.53
2019-04-06T07:55:08.603Z,22.90
2019-04-06T07:57:40.358Z,25.70
2019-04-06T08:00:13.920Z,23.57
2019-04-06T08:02:47.108Z,22.30
2019-04-06T08:05:19.169Z,22.17
2019-04-06T08:07:50.850Z,21.77
2019-04-06T08:10:22.555Z,22.70
2019-04-06T08:12:55.374Z,22.27
2019-04-06T08:15:27.193Z,24.60
2019-04-06T08:17:59.002Z,26.93
2019-04-06T08:20:30.696Z,22.33
2019-04-06T08:23:14.379Z,26.27
2019-04-06T08:25:46.346Z,23.80
2019-04-06T08:28:18.381Z,21.43
2019-04-06T08:30:50.191Z,24.70
2019-04-06T08:33:23.934Z,23.80
2019-04-06T08:35:56.062Z,22.27
2019-04-06T08:38:27.805Z,24.57
2019-04-06T08:40:59.591Z,22.13
2019-04-06T08:43:31.448Z,20.83
2019-04-06T08:46:03.186Z,22.20
2019-04-06T08:48:35.000Z,27.87
2019-04-06T08:51:06.903Z,24.23
2019-04-06T08:53:38.702Z,21.63
2019-04-06T08:56:11.893Z,22.83
2019-04-06T08:58:43.608Z,24.03
2019-04-06T09:01:15.414Z,22.50
2019-04-06T09:03:47.134Z,23.40
2019-04-06T09:06:18.888Z,26.27
2019-04-06T09:08:52.492Z,24.50
2019-04-06T09:11:24.308Z,20.77
2019-04-06T09:13:58.023Z,20.03
2019-04-06T09:16:29.746Z,21.90
2019-04-06T09:19:01.544Z,22.07
2019-04-06T09:21:33.257Z,22.27
2019-04-06T09:24:05.093Z,23.57
2019-04-06T09:26:36.937Z,23.00
2019-04-06T09:29:08.916Z,24.03
2019-04-06T09:31:42.636Z,25.97
2019-04-06T09:34:14.415Z,25.93
2019-04-06T09:36:46.257Z,22.77
2019-04-06T09:39:18.375Z,21.73
2019-04-06T09:41:51.536Z,22.63
2019-04-06T09:44:45.322Z,23.70
2019-04-06T09:47:36.080Z,21.73
2019-04-06T09:50:18.806Z,24.80
2019-04-06T09:53:05.533Z,22.07
2019-04-06T09:55:47.460Z,22.50
2019-04-06T09:58:36.623Z,23.53
2019-04-06T10:01:39.588Z,24.70
2019-04-06T10:04:32.718Z,22.17
2019-04-06T10:07:42.377Z,23.43
2019-04-06T10:10:48.563Z,24.33
2019-04-06T10:13:45.179Z,21.33
2019-04-06T10:16:35.952Z,20.93
2019-04-06T10:19:29.571Z,25.03
2019-04-06T10:22:13.319Z,21.00
2019-04-06T10:25:02.914Z,19.37
2019-04-06T10:27:45.708Z,21.30
2019-04-06T10:30:34.955Z,22.07
2019-04-06T10:33:31.670Z,21.43
2019-04-06T10:36:22.605Z,22.37
2019-04-06T10:39:17.386Z,23.03
2019-04-06T10:42:07.124Z,20.03
2019-04-06T10:45:03.781Z,21.17
2019-04-06T10:47:47.629Z,24.07
2019-04-06T10:50:38.458Z,22.20
2019-04-06T10:53:41.004Z,23.37
2019-04-06T10:56:30.265Z,21.10
2019-04-06T10:59:20.532Z,22.23
2019-04-06T11:02:09.839Z,21.17
2019-04-06T11:04:49.293Z,24.33
2019-04-06T11:07:23.531Z,24.03
2019-04-06T11:10:14.107Z,26.27
2019-04-06T11:13:05.460Z,25.53
2019-04-06T11:16:08.418Z,23.30
2019-04-06T11:18:54.783Z,24.30
2019-04-06T11:21:44.415Z,24.77
2019-04-06T11:24:38.133Z,26.47
2019-04-06T11:27:28.860Z,24.43
2019-04-06T11:30:29.062Z,25.57
2019-04-06T11:33:19.870Z,24.77
2019-04-06T11:36:09.207Z,26.10
2019-04-06T11:38:58.455Z,25.20
2019-04-06T11:41:58.448Z,25.07
2019-04-06T11:44:53.905Z,25.87
2019-04-06T11:47:37.317Z,26.53
2019-04-06T11:50:21.803Z,27.37
2019-04-06T11:53:27.932Z,26.97
2019-04-06T11:56:11.078Z,25.03
2019-04-06T11:58:50.707Z,23.63
2019-04-06T12:01:27.914Z,22.37
2019-04-06T12:04:21.157Z,23.77
2019-04-06T12:07:00.802Z,23.10
2019-04-06T12:09:56.183Z,25.30
2019-04-06T12:12:49.729Z,23.93
2019-04-06T12:15:47.830Z,23.00
2019-04-06T12:18:57.154Z,26.00
2019-04-06T12:21:50.656Z,25.37
2019-04-06T12:24:50.531Z,25.50
2019-04-06T12:27:43.106Z,26.13
2019-04-06T12:30:40.175Z,23.60
2019-04-06T12:33:32.071Z,24.73
2019-04-06T12:36:28.773Z,23.27
2019-04-06T12:39:18.440Z,24.37
2019-04-06T12:41:57.675Z,24.97
2019-04-06T12:44:51.018Z,22.97
2019-04-06T12:47:38.327Z,26.67
2019-04-06T12:50:28.090Z,24.40
2019-04-06T12:53:24.677Z,23.30
2019-04-06T12:56:07.807Z,26.87
2019-04-06T12:58:58.507Z,23.27
2019-04-06T13:02:01.463Z,23.97
2019-04-06T13:04:58.647Z,24.33
2019-04-06T13:07:56.612Z,25.20
2019-04-06T13:10:46.035Z,24.90
2019-04-06T13:13:27.719Z,23.12
2019-04-06T13:16:26.407Z,23.50
2019-04-06T13:19:10.514Z,23.73
2019-04-06T13:22:00.152Z,22.45
2019-04-06T13:25:00.467Z,25.27
2019-04-06T13:27:40.847Z,23.22
2019-04-06T13:30:31.134Z,22.60
2019-04-06T13:33:09.639Z,23.00
2019-04-06T13:36:02.810Z,26.07
2019-04-06T13:38:52.512Z,21.80
2019-04-06T13:41:52.159Z,22.70
2019-04-06T13:44:37.242Z,25.20
2019-04-06T13:47:28.955Z,22.73
2019-04-06T13:50:25.433Z,20.77
2019-04-06T13:53:11.200Z,22.47
2019-04-06T13:56:20.728Z,20.00
2019-04-06T13:59:29.507Z,21.87
2019-04-06T14:02:11.485Z,21.43
2019-04-06T14:04:53.430Z,21.90
2019-04-06T14:07:38.674Z,23.20
2019-04-06T14:10:29.941Z,23.73
2019-04-06T14:13:30.237Z,21.37
2019-04-06T14:16:18.979Z,20.23
2019-04-06T14:19:09.782Z,20.50
2019-04-06T14:22:00.395Z,19.80
2019-04-06T14:24:53.952Z,20.30
2019-04-06T14:27:38.304Z,21.87
2019-04-06T14:30:38.172Z,20.80
2019-04-06T14:33:31.952Z,18.83
2019-04-06T14:36:35.232Z,17.83
2019-04-06T14:39:17.460Z,19.30
2019-04-06T14:42:07.069Z,19.87
2019-04-06T14:44:57.816Z,20.13
2019-04-06T14:47:44.693Z,17.83
2019-04-06T14:50:35.215Z,17.87
2019-04-06T14:53:26.188Z,16.90
2019-04-06T14:56:08.052Z,18.43
2019-04-06T14:58:58.269Z,17.43
2019-04-06T15:01:58.183Z,16.77
2019-04-06T15:04:44.475Z,17.93
2019-04-06T15:07:34.076Z,18.07
2019-04-06T15:10:28.735Z,16.67
2019-04-06T15:13:18.196Z,15.17
2019-04-06T15:16:06.173Z,14.77
2019-04-06T15:19:02.024Z,15.30
2019-04-06T15:21:56.082Z,14.63
2019-04-06T15:24:49.807Z,16.67
2019-04-06T15:27:40.754Z,20.67
2019-04-06T15:30:31.868Z,16.13
2019-04-06T15:33:21.188Z,15.53
2019-04-06T15:36:29.887Z,15.23
2019-04-06T15:39:32.738Z,13.37
2019-04-06T15:42:15.100Z,14.70
2019-04-06T15:45:18.040Z,15.47
2019-04-06T15:48:07.350Z,17.03
2019-04-06T15:50:45.950Z,14.13
2019-04-06T15:53:48.525Z,13.90
2019-04-06T15:56:39.112Z,14.37
2019-04-06T15:59:47.841Z,14.17
2019-04-06T16:02:47.470Z,15.03
2019-04-06T16:05:37.711Z,13.37
2019-04-06T16:08:28.880Z,14.57
2019-04-06T16:11:25.499Z,13.97
2019-04-06T16:14:31.254Z,13.77
2019-04-06T16:17:11.920Z,13.33
2019-04-06T16:20:06.979Z,14.03
2019-04-06T16:23:06.720Z,14.93
2019-04-06T16:25:48.881Z,15.53
2019-04-06T16:28:42.134Z,14.83
2019-04-06T16:31:20.524Z,13.17
2019-04-06T16:34:09.458Z,13.10
2019-04-06T16:37:12.377Z,12.60
2019-04-06T16:40:01.354Z,12.37
2019-04-06T16:42:57.772Z,13.60
2019-04-06T16:45:40.050Z,12.43
2019-04-06T16:48:19.111Z,12.77
2019-04-06T16:51:22.306Z,14.90
2019-04-06T16:54:06.850Z,12.53
2019-04-06T16:57:12.574Z,13.07
2019-04-06T16:59:56.899Z,14.33
2019-04-06T17:02:46.030Z,18.10
2019-04-06T17:05:24.876Z,19.43
2019-04-06T17:08:15.637Z,22.20
2019-04-06T17:11:06.361Z,20.93
2019-04-06T17:13:57.000Z,22.83
2019-04-06T17:16:47.769Z,23.40
2019-04-06T17:19:53.307Z,25.07
2019-04-06T17:22:31.086Z,24.47
2019-04-06T17:25:27.782Z,27.23
2019-04-06T17:28:24.386Z,25.10
2019-04-06T17:31:19.086Z,26.40
2019-04-06T17:33:58.113Z,26.07
2019-04-06T17:36:37.364Z,25.57
2019-04-06T17:39:39.123Z,24.93
2019-04-06T17:42:48.181Z,26.43
2019-04-06T17:45:42.687Z,26.80
2019-04-06T17:48:26.537Z,26.77
2019-04-06T17:51:19.943Z,26.23
2019-04-06T17:54:14.543Z,27.97
2019-04-06T17:56:59.200Z,30.13
2019-04-06T17:59:42.041Z,29.83
2019-04-06T18:02:46.902Z,26.50
2019-04-06T18:05:28.291Z,26.87
2019-04-06T18:08:18.990Z,26.37
2019-04-06T18:10:59.689Z,26.67
2019-04-06T18:13:46.213Z,26.30
2019-04-06T18:16:20.876Z,26.27
2019-04-06T18:18:52.563Z,27.50
2019-04-06T18:21:24.571Z,27.63
2019-04-06T18:23:56.301Z,27.57
2019-04-06T18:26:28.035Z,28.97
2019-04-06T18:29:00.062Z,26.53
2019-04-06T18:31:56.630Z,27.63
2019-04-06T18:34:29.557Z,30.97
2019-04-06T18:37:29.593Z,31.17
2019-04-06T18:40:02.724Z,28.60
2019-04-06T18:42:34.622Z,28.57
2019-04-06T18:45:06.898Z,28.70
2019-04-06T18:47:39.034Z,31.80
2019-04-06T18:50:12.875Z,30.90
2019-04-06T18:52:44.669Z,30.67
2019-04-06T18:55:16.566Z,28.50
2019-04-06T18:57:48.385Z,31.17
2019-04-06T19:00:21.084Z,31.87
2019-04-06T19:02:52.832Z,33.27
2019-04-06T19:05:25.092Z,33.67
2019-04-06T19:07:56.918Z,32.40
2019-04-06T19:10:31.714Z,33.33
2019-04-06T19:13:03.485Z,34.10
2019-04-06T19:15:35.372Z,30.03
2019-04-06T19:18:07.196Z,31.83
2019-04-06T19:20:39.253Z,30.93
2019-04-06T19:23:11.979Z,36.37
2019-04-06T19:25:44.272Z,36.13
2019-04-06T19:28:16.602Z,34.93
2019-04-06T19:30:48.702Z,35.90
2019-04-06T19:33:25.155Z,32.83
2019-04-06T19:35:54.013Z,34.63
2019-04-06T19:38:25.797Z,33.80
2019-04-06T19:40:59.717Z,34.53
2019-04-06T19:43:31.503Z,33.77
2019-04-06T19:46:03.371Z,30.03
2019-04-06T19:48:35.131Z,32.53
2019-04-06T19:51:07.109Z,37.40
2019-04-06T19:53:39.080Z,33.47
2019-04-06T19:56:10.940Z,33.70
2019-04-06T19:58:42.847Z,33.70
2019-04-06T20:01:14.776Z,33.03
2019-04-06T20:03:46.630Z,35.30
2019-04-06T20:06:18.395Z,33.37
2019-04-06T20:08:50.204Z,37.17
2019-04-06T20:11:22.075Z,37.63
2019-04-06T20:13:54.059Z,35.00
2019-04-06T20:16:26.393Z,35.80
2019-04-06T20:18:59.808Z,36.77
2019-04-06T20:21:31.843Z,34.70
2019-04-06T20:24:04.112Z,35.40
2019-04-06T20:26:36.143Z,34.10
2019-04-06T20:29:07.994Z,34.30
2019-04-06T20:31:39.996Z,32.77
2019-04-06T20:34:11.905Z,35.93
2019-04-06T20:36:43.866Z,36.17
2019-04-06T20:39:15.728Z,32.17
2019-04-06T20:41:48.103Z,33.33
2019-04-06T20:44:20.054Z,33.03
2019-04-06T20:46:51.890Z,33.43
2019-04-06T20:49:24.659Z,33.03
2019-04-06T20:51:58.739Z,33.33
2019-04-06T20:54:29.979Z,34.53
2019-04-06T20:57:01.935Z,32.37
2019-04-06T20:59:33.728Z,31.23
2019-04-06T21:02:05.712Z,36.67
2019-04-06T21:04:37.492Z,34.40
2019-04-06T21:07:11.140Z,32.83
2019-04-06T21:09:43.731Z,29.60
2019-04-06T21:12:15.987Z,32.10
2019-04-06T21:14:48.059Z,32.57
2019-04-06T21:17:20.219Z,29.67
2019-04-06T21:19:53.624Z,36.90
2019-04-06T21:22:26.171Z,35.50
2019-04-06T21:24:58.284Z,31.93
2019-04-06T21:27:30.423Z,34.67
2019-04-06T21:30:04.019Z,34.17
2019-04-06T21:32:36.081Z,34.13
2019-04-06T21:35:08.656Z,35.77
2019-04-06T21:37:41.604Z,31.33
2019-04-06T21:40:16.215Z,32.87
2019-04-06T21:42:48.451Z,31.57
2019-04-06T21:45:20.705Z,32.83
2019-04-06T21:48:11.636Z,28.83
2019-04-06T21:50:43.634Z,31.87
2019-04-06T21:53:15.439Z,31.90
2019-04-06T21:55:47.275Z,29.17
2019-04-06T21:58:19.343Z,35.73
2019-04-06T22:00:53.782Z,29.20
2019-04-06T22:03:25.983Z,32.17
2019-04-06T22:05:59.329Z,28.00
2019-04-06T22:08:31.732Z,32.33
2019-04-06T22:11:03.853Z,34.63
2019-04-06T22:13:36.554Z,28.03
2019-04-06T22:16:08.608Z,31.23
2019-04-06T22:18:40.698Z,28.37
2019-04-06T22:21:12.544Z,26.63
2019-04-06T22:23:45.306Z,25.90
2019-04-06T22:26:18.245Z,28.07
2019-04-06T22:28:50.140Z,24.77
2019-04-06T22:31:22.468Z,30.57
2019-04-06T22:33:54.176Z,31.70
2019-04-06T22:36:26.049Z,30.67
2019-04-06T22:38:57.875Z,30.60
2019-04-06T22:41:29.860Z,29.33
2019-04-06T22:44:01.861Z,29.60
2019-04-06T22:46:33.768Z,31.50
2019-04-06T22:49:06.634Z,33.83
2019-04-06T22:51:39.056Z,33.93
2019-04-06T22:54:10.968Z,33.30
2019-04-06T22:56:42.897Z,33.60
2019-04-06T22:59:18.880Z,30.13
2019-04-06T23:01:50.674Z,32.27
2019-04-06T23:04:46.676Z,34.73
2019-04-06T23:07:13.238Z,32.80
2019-04-06T23:09:46.660Z,33.67
2019-04-06T23:12:20.313Z,32.13
2019-04-06T23:14:52.165Z,32.97
2019-04-06T23:17:23.900Z,31.47
2019-04-06T23:19:57.052Z,31.63
2019-04-06T23:22:28.808Z,32.17
2019-04-06T23:25:01.910Z,31.63
2019-04-06T23:27:33.731Z,30.47
2019-04-06T23:30:06.608Z,32.57
2019-04-06T23:32:38.354Z,31.70
2019-04-06T23:35:10.393Z,31.97
2019-04-06T23:37:42.134Z,32.40
2019-04-06T23:40:14.546Z,29.00
2019-04-06T23:42:46.972Z,29.53
2019-04-06T23:45:18.890Z,30.20
2019-04-06T23:47:51.072Z,31.87
2019-04-06T23:50:22.841Z,33.13
2019-04-06T23:52:54.602Z,32.63
2019-04-06T23:55:26.348Z,30.13
2019-04-06T23:57:58.048Z,32.30
